Ashippun, Wisconsin
Current Conditions -  °F | °C
As of 12:15 AM on Wednesday 28 Jan 2015 (Local Time) from KRYV Reporting Station
Broken Clouds Broken Clouds  
Wind Chill: 23°   Ceiling: 12000
Heat Index: 23°   Visibility: 10mi
Dew Point: 18°   Wind: 0mph
Humidity: 83%   Direction: NA
Pressure: 30.24"   Gusts: NA
Location:  43.21°N, 88.52°W
Report Text: KRYV 280615Z AUTO 00000KT 10SM BKN120 M05/M08 A3024 RMK AO2 T10521076
Loading
Personal Weather Stations






























Interactive Weather Map New forecast layout! Learn more

10-Day Weather Forecast

Advertisements
Track Severe Weather on mobile